地図

経路データ

SID SEASON NUMBER BASIN SUBBASIN NAME ISO_TIME NATURE LAT LON WMO_WIND WMO_PRES WMO_AGENCY TRACK_TYPE DIST2LAND LANDFALL IFLAG USA_AGENCY USA_ATCF_ID USA_LAT USA_LON USA_RECORD USA_STATUS USA_WIND USA_PRES USA_SSHS USA_R34_NE USA_R34_SE USA_R34_SW USA_R34_NW USA_R50_NE USA_R50_SE USA_R50_SW USA_R50_NW USA_R64_NE USA_R64_SE USA_R64_SW USA_R64_NW USA_POCI USA_ROCI USA_RMW USA_EYE TOKYO_LAT TOKYO_LON TOKYO_GRADE TOKYO_WIND TOKYO_PRES TOKYO_R50_DIR TOKYO_R50_LONG TOKYO_R50_SHORT TOKYO_R30_DIR TOKYO_R30_LONG TOKYO_R30_SHORT TOKYO_LAND CMA_LAT CMA_LON CMA_CAT CMA_WIND CMA_PRES HKO_LAT HKO_LON HKO_CAT HKO_WIND HKO_PRES NEWDELHI_LAT NEWDELHI_LON NEWDELHI_GRADE NEWDELHI_WIND NEWDELHI_PRES NEWDELHI_CI NEWDELHI_DP NEWDELHI_POCI REUNION_LAT REUNION_LON REUNION_TYPE REUNION_WIND REUNION_PRES REUNION_TNUM REUNION_CI REUNION_RMW REUNION_R34_NE REUNION_R34_SE REUNION_R34_SW REUNION_R34_NW REUNION_R50_NE REUNION_R50_SE REUNION_R50_SW REUNION_R50_NW REUNION_R64_NE REUNION_R64_SE REUNION_R64_SW REUNION_R64_NW BOM_LAT BOM_LON BOM_TYPE BOM_WIND BOM_PRES BOM_TNUM BOM_CI BOM_RMW BOM_R34_NE BOM_R34_SE BOM_R34_SW BOM_R34_NW BOM_R50_NE BOM_R50_SE BOM_R50_SW BOM_R50_NW BOM_R64_NE BOM_R64_SE BOM_R64_SW BOM_R64_NW BOM_ROCI BOM_POCI BOM_EYE BOM_POS_METHOD BOM_PRES_METHOD NADI_LAT NADI_LON NADI_CAT NADI_WIND NADI_PRES WELLINGTON_LAT WELLINGTON_LON WELLINGTON_WIND WELLINGTON_PRES DS824_LAT DS824_LON DS824_STAGE DS824_WIND DS824_PRES TD9636_LAT TD9636_LON TD9636_STAGE TD9636_WIND TD9636_PRES TD9635_LAT TD9635_LON TD9635_WIND TD9635_PRES TD9635_ROCI NEUMANN_LAT NEUMANN_LON NEUMANN_CLASS NEUMANN_WIND NEUMANN_PRES MLC_LAT MLC_LON MLC_CLASS MLC_WIND MLC_PRES USA_GUST BOM_GUST BOM_GUST_PER REUNION_GUST REUNION_GUST_PER USA_SEAHGT USA_SEARAD_NE USA_SEARAD_SE USA_SEARAD_SW USA_SEARAD_NW STORM_SPEED STORM_DIR
1917198N14127 1917 28 WP MM NOT_NAMED 1917-07-16 22:00:00 NR 13.8000 126.600 main 210 183 __________O___ -1 13.8000 126.600 7 17 286
1917198N14127 1917 28 WP MM NOT_NAMED 1917-07-17 00:00:00 NR 13.9518 126.056 main 183 92 __________P___ -1 13.9518 126.056 7 16 286
1917198N14127 1917 28 WP MM NOT_NAMED 1917-07-17 03:00:00 NR 14.1777 125.250 main 92 49 __________P___ -1 14.1777 125.250 7 16 286
1917198N14127 1917 28 WP MM NOT_NAMED 1917-07-17 06:00:00 NR 14.4020 124.470 main 49 44 __________P___ -1 14.4020 124.470 7 15 287
1917198N14127 1917 28 WP MM NOT_NAMED 1917-07-17 09:00:00 NR 14.6255 123.733 main 78 78 __________P___ -1 14.6255 123.733 7 15 288
1917198N14127 1917 28 WP MM NOT_NAMED 1917-07-17 10:00:00 NR 14.7000 123.500 main 81 70 __________O___ -1 14.7000 123.500 2 14 289
1917198N14127 1917 28 WP MM NOT_NAMED 1917-07-17 12:00:00 NR 14.8493 123.055 main 70 78 __________P___ -1 14.8493 123.055 2 13 290
1917198N14127 1917 28 WP MM NOT_NAMED 1917-07-17 15:00:00 NR 15.0740 122.438 main 87 48 __________P___ -1 15.0740 122.438 2 12 292
1917198N14127 1917 28 WP MM NOT_NAMED 1917-07-17 18:00:00 NR 15.2992 121.876 main 48 0 __________P___ -1 15.2992 121.876 2 11 293
1917198N14127 1917 28 WP MM NOT_NAMED 1917-07-17 21:00:00 NR 15.5248 121.362 main 0 0 __________P___ -1 15.5248 121.362 2 11 295
1917198N14127 1917 28 WP MM NOT_NAMED 1917-07-17 22:00:00 NR 15.6000 121.200 main 0 0 __________O___ -1 15.6000 121.200 2 10 295
1917198N14127 1917 28 WP MM NOT_NAMED 1917-07-18 00:00:00 NR 15.7391 120.874 main 0 0 __________P___ -1 15.7391 120.874 2 10 295
1917198N14127 1917 28 WP MM NOT_NAMED 1917-07-18 03:00:00 NR 15.9478 120.423 main 0 0 __________P___ -1 15.9478 120.423 2 9 297
1917198N14127 1917 28 WP MM NOT_NAMED 1917-07-18 06:00:00 NR 16.1679 120.010 main 10 0 __________P___ -1 16.1679 120.010 2 9 301
1917198N14127 1917 28 WP MM NOT_NAMED 1917-07-18 09:00:00 NR 16.4114 119.624 main 24 24 __________P___ -1 16.4114 119.624 2 9 304
1917198N14127 1917 28 WP MM NOT_NAMED 1917-07-18 10:00:00 NR 16.5000 119.500 main 39 39 __________O___ -1 16.5000 119.500 2 10 308
1917198N14127 1917 28 WP MM NOT_NAMED 1917-07-18 12:00:00 NR 16.7095 119.229 main 78 78 __________P___ -1 16.7095 119.229 2 10 311
1917198N14127 1917 28 WP MM NOT_NAMED 1917-07-18 15:00:00 NR 17.0495 118.840 main 132 139 __________P___ -1 17.0495 118.840 2 10 314
1917198N14127 1917 28 WP MM NOT_NAMED 1917-07-18 18:00:00 NR 17.3924 118.488 main 185 185 __________P___ -1 17.3924 118.488 2 9 316
1917198N14127 1917 28 WP MM NOT_NAMED 1917-07-18 21:00:00 NR 17.7069 118.186 main 222 222 __________P___ -1 17.7069 118.186 2 8 318
1917198N14127 1917 28 WP MM NOT_NAMED 1917-07-18 22:00:00 NR 17.8000 118.100 main 234 234 __________O___ -1 17.8000 118.100 2 7 317
1917198N14127 1917 28 WP MM NOT_NAMED 1917-07-19 00:00:00 NR 17.9454 117.956 main 245 258 __________P___ -1 17.9454 117.956 2 5 318
1917198N14127 1917 28 WP MM NOT_NAMED 1917-07-19 03:00:00 NR 18.1257 117.792 main 270 270 __________P___ -1 18.1257 117.792 2 4 321
1917198N14127 1917 28 WP MM NOT_NAMED 1917-07-19 06:00:00 NR 18.2830 117.664 main 286 286 __________P___ -1 18.2830 117.664 2 4 323
1917198N14127 1917 28 WP MM NOT_NAMED 1917-07-19 09:00:00 NR 18.4422 117.543 main 309 312 __________P___ -1 18.4422 117.543 2 4 325
1917198N14127 1917 28 WP MM NOT_NAMED 1917-07-19 10:00:00 NR 18.5000 117.500 main 312 312 __________O___ -1 18.5000 117.500 3 5 320
1917198N14127 1917 28 WP MM NOT_NAMED 1917-07-19 12:00:00 NR 18.6229 117.384 main 326 326 __________P___ -1 18.6229 117.384 3 5 319
1917198N14127 1917 28 WP MM NOT_NAMED 1917-07-19 15:00:00 NR 18.8194 117.203 main 353 353 __________P___ -1 18.8194 117.203 3 5 321
1917198N14127 1917 28 WP MM NOT_NAMED 1917-07-19 18:00:00 NR 19.0418 117.023 main 382 385 __________P___ -1 19.0418 117.023 3 6 326
1917198N14127 1917 28 WP MM NOT_NAMED 1917-07-19 21:00:00 NR 19.3024 116.853 main 396 383 __________P___ -1 19.3024 116.853 3 6 330
1917198N14127 1917 28 WP MM NOT_NAMED 1917-07-19 22:00:00 NR 19.4000 116.800 main 383 358 __________O___ -1 19.4000 116.800 4 7 334
1917198N14127 1917 28 WP MM NOT_NAMED 1917-07-20 00:00:00 NR 19.6262 116.685 main 358 310 __________P___ -1 19.6262 116.685 4 8 337
1917198N14127 1917 28 WP MM NOT_NAMED 1917-07-20 03:00:00 NR 20.0037 116.523 main 310 264 __________P___ -1 20.0037 116.523 4 8 340
1917198N14127 1917 28 WP MM NOT_NAMED 1917-07-20 06:00:00 NR 20.3990 116.393 main 264 218 __________P___ -1 20.3990 116.393 4 8 346
1917198N14127 1917 28 WP MM NOT_NAMED 1917-07-20 09:00:00 NR 20.7810 116.313 main 218 207 __________P___ -1 20.7810 116.313 4 8 350
1917198N14127 1917 28 WP MM NOT_NAMED 1917-07-20 10:00:00 NR 20.9000 116.300 main 207 186 __________O___ -1 20.9000 116.300 4 7 0
1917198N14127 1917 28 WP MM NOT_NAMED 1917-07-20 12:00:00 NR 21.1218 116.296 main 186 154 __________P___ -1 21.1218 116.296 4 6 4
1917198N14127 1917 28 WP MM NOT_NAMED 1917-07-20 15:00:00 NR 21.4298 116.341 main 154 126 __________P___ -1 21.4298 116.341 4 6 12
1917198N14127 1917 28 WP MM NOT_NAMED 1917-07-20 18:00:00 NR 21.7024 116.432 main 126 108 __________P___ -1 21.7024 116.432 4 5 21
1917198N14127 1917 28 WP MM NOT_NAMED 1917-07-20 21:00:00 NR 21.9333 116.555 main 112 101 __________P___ -1 21.9333 116.555 4 5 28
1917198N14127 1917 28 WP MM NOT_NAMED 1917-07-20 22:00:00 NR 22.0000 116.600 main 101 90 __________O___ -1 22.0000 116.600 4 5 36
1917198N14127 1917 28 WP MM NOT_NAMED 1917-07-21 00:00:00 NR 22.1177 116.693 main 91 78 __________P___ -1 22.1177 116.693 4 4 42
1917198N14127 1917 28 WP MM NOT_NAMED 1917-07-21 03:00:00 NR 22.2563 116.853 main 78 75 __________P___ -1 22.2563 116.853 4 4 50
1917198N14127 1917 28 WP MM NOT_NAMED 1917-07-21 06:00:00 NR 22.3661 117.015 main 75 75 __________P___ -1 22.3661 117.015 4 4 54
1917198N14127 1917 28 WP MM NOT_NAMED 1917-07-21 09:00:00 NR 22.4658 117.160 main 84 84 __________P___ -1 22.4658 117.160 4 3 52
1917198N14127 1917 28 WP MM NOT_NAMED 1917-07-21 10:00:00 NR 22.5000 117.200 main 84 84 __________O___ -1 22.5000 117.200 4 3 57
1917198N14127 1917 28 WP MM NOT_NAMED 1917-07-21 12:00:00 NR 22.5439 117.287 main 93 88 __________P___ -1 22.5439 117.287 4 3 59
1917198N14127 1917 28 WP MM NOT_NAMED 1917-07-21 15:00:00 NR 22.6088 117.394 main 98 90 __________P___ -1 22.6088 117.394 4 2 41
1917198N14127 1917 28 WP MM NOT_NAMED 1917-07-21 18:00:00 NR 22.7145 117.449 main 90 73 __________P___ -1 22.7145 117.449 4 3 7
1917198N14127 1917 28 WP MM NOT_NAMED 1917-07-21 21:00:00 NR 22.9079 117.428 main 73 63 __________P___ -1 22.9079 117.428 4 4 352
1917198N14127 1917 28 WP MM NOT_NAMED 1917-07-21 22:00:00 NR 23.0000 117.400 main 63 30 __________O___ -1 23.0000 117.400 4 7 344
1917198N14127 1917 28 WP MM NOT_NAMED 1917-07-22 00:00:00 NR 23.2582 117.313 main 30 0 __________P___ -1 23.2582 117.313 4 10 340
1917198N14127 1917 28 WP MM NOT_NAMED 1917-07-22 03:00:00 NR 23.7404 117.106 main 0 0 __________P___ -1 23.7404 117.106 4 11 337
1917198N14127 1917 28 WP MM NOT_NAMED 1917-07-22 06:00:00 NR 24.2835 116.831 main 0 0 __________P___ -1 24.2835 116.831 4 12 334
1917198N14127 1917 28 WP MM NOT_NAMED 1917-07-22 09:00:00 NR 24.8283 116.512 main 0 0 __________P___ -1 24.8283 116.512 4 12 331
1917198N14127 1917 28 WP MM NOT_NAMED 1917-07-22 10:00:00 NR 25.0000 116.400 main 0 0 __________O___ -1 25.0000 116.400 4 12 328
1917198N14127 1917 28 WP MM NOT_NAMED 1917-07-22 12:00:00 NR 25.3194 116.173 main 0 0 __________P___ -1 25.3194 116.173 4 11 325
1917198N14127 1917 28 WP MM NOT_NAMED 1917-07-22 15:00:00 NR 25.7466 115.827 main 0 0 __________P___ -1 25.7466 115.827 4 10 322
1917198N14127 1917 28 WP MM NOT_NAMED 1917-07-22 18:00:00 NR 26.1284 115.475 main 0 0 __________P___ -1 26.1284 115.475 4 10 319
1917198N14127 1917 28 WP MM NOT_NAMED 1917-07-22 21:00:00 NR 26.4840 115.119 main 0 0 __________P___ -1 26.4840 115.119 4 10 318
1917198N14127 1917 28 WP MM NOT_NAMED 1917-07-22 22:00:00 NR 26.6000 115.000 main 0 __________O___ -1 26.6000 115.000 7 9 317

デジタル台風データ・検索

IBTrACS Databaseについて

本データベースは、米国NOAAが公開する1842年以降の世界の熱帯低気圧のベストトラックデータアーカイブInternational Best Track Archive for Climate Stewardship (IBTrACS)を、ウェブで閲覧しやすい形式に変換したものです。

最終更新日:2021-12-06